sensor_id;sensor_type;location;lat;lon;timestamp;pressure;altitude;pressure_sealevel;temperature;humidity
79690;BME280;69156;55.932;-3.238;2023-12-20T00:00:37;100271.99;;;7.35;100.00
79690;BME280;69156;55.932;-3.238;2023-12-20T00:03:02;100279.54;;;7.25;100.00
79690;BME280;69156;55.932;-3.238;2023-12-20T00:05:27;100281.66;;;7.27;100.00
79690;BME280;69156;55.932;-3.238;2023-12-20T00:07:54;100295.60;;;7.40;100.00
79690;BME280;69156;55.932;-3.238;2023-12-20T00:10:20;100288.69;;;7.34;100.00
79690;BME280;69156;55.932;-3.238;2023-12-20T00:12:46;100289.52;;;7.32;100.00
79690;BME280;69156;55.932;-3.238;2023-12-20T00:15:13;100293.90;;;7.42;100.00
79690;BME280;69156;55.932;-3.238;2023-12-20T00:17:39;100295.62;;;7.27;100.00
79690;BME280;69156;55.932;-3.238;2023-12-20T00:20:06;100289.70;;;7.35;100.00
79690;BME280;69156;55.932;-3.238;2023-12-20T00:22:30;100290.10;;;7.37;100.00
79690;BME280;69156;55.932;-3.238;2023-12-20T00:24:56;100280.35;;;7.43;100.00
79690;BME280;69156;55.932;-3.238;2023-12-20T00:27:22;100280.92;;;7.41;100.00
79690;BME280;69156;55.932;-3.238;2023-12-20T00:29:48;100287.59;;;7.47;100.00
79690;BME280;69156;55.932;-3.238;2023-12-20T00:32:13;100273.43;;;7.53;100.00
79690;BME280;69156;55.932;-3.238;2023-12-20T00:34:38;100271.12;;;7.53;100.00
79690;BME280;69156;55.932;-3.238;2023-12-20T00:37:04;100259.06;;;7.60;100.00
79690;BME280;69156;55.932;-3.238;2023-12-20T00:39:30;100256.25;;;7.64;100.00
79690;BME280;69156;55.932;-3.238;2023-12-20T00:41:57;100252.63;;;7.72;100.00
79690;BME280;69156;55.932;-3.238;2023-12-20T00:44:23;100256.69;;;7.79;100.00
79690;BME280;69156;55.932;-3.238;2023-12-20T00:46:50;100254.08;;;7.80;100.00
79690;BME280;69156;55.932;-3.238;2023-12-20T00:49:15;100244.23;;;7.79;100.00
79690;BME280;69156;55.932;-3.238;2023-12-20T00:51:40;100260.24;;;7.73;100.00
79690;BME280;69156;55.932;-3.238;2023-12-20T00:54:06;100276.78;;;7.72;100.00
79690;BME280;69156;55.932;-3.238;2023-12-20T00:56:31;100282.15;;;7.78;100.00
79690;BME280;69156;55.932;-3.238;2023-12-20T00:58:57;100281.33;;;7.91;100.00
79690;BME280;69156;55.932;-3.238;2023-12-20T01:01:22;100283.12;;;7.96;100.00
79690;BME280;69156;55.932;-3.238;2023-12-20T01:03:48;100279.20;;;7.89;100.00
79690;BME280;69156;55.932;-3.238;2023-12-20T01:06:14;100278.77;;;7.84;100.00
79690;BME280;69156;55.932;-3.238;2023-12-20T01:08:40;100283.90;;;7.95;100.00
79690;BME280;69156;55.932;-3.238;2023-12-20T01:11:07;100274.91;;;7.96;100.00
79690;BME280;69156;55.932;-3.238;2023-12-20T01:13:32;100285.24;;;7.96;100.00
79690;BME280;69156;55.932;-3.238;2023-12-20T01:15:57;100297.16;;;8.01;100.00
79690;BME280;69156;55.932;-3.238;2023-12-20T01:18:23;100289.80;;;7.99;100.00
79690;BME280;69156;55.932;-3.238;2023-12-20T01:20:49;100289.57;;;7.96;100.00
79690;BME280;69156;55.932;-3.238;2023-12-20T01:23:16;100283.71;;;7.91;100.00
79690;BME280;69156;55.932;-3.238;2023-12-20T01:25:42;100284.48;;;8.01;100.00
79690;BME280;69156;55.932;-3.238;2023-12-20T01:28:08;100290.69;;;7.92;100.00
79690;BME280;69156;55.932;-3.238;2023-12-20T01:30:35;100296.73;;;7.88;100.00
79690;BME280;69156;55.932;-3.238;2023-12-20T01:33:00;100295.17;;;7.82;100.00
79690;BME280;69156;55.932;-3.238;2023-12-20T01:35:26;100298.52;;;7.81;100.00
79690;BME280;69156;55.932;-3.238;2023-12-20T01:37:52;100293.09;;;7.83;100.00
79690;BME280;69156;55.932;-3.238;2023-12-20T01:40:18;100290.60;;;7.79;100.00
79690;BME280;69156;55.932;-3.238;2023-12-20T01:42:43;100291.66;;;7.79;100.00
79690;BME280;69156;55.932;-3.238;2023-12-20T01:45:10;100289.16;;;7.77;100.00
79690;BME280;69156;55.932;-3.238;2023-12-20T01:47:35;100291.02;;;7.66;100.00
79690;BME280;69156;55.932;-3.238;2023-12-20T01:50:01;100302.92;;;7.65;100.00
79690;BME280;69156;55.932;-3.238;2023-12-20T01:52:27;100305.69;;;7.65;100.00
79690;BME280;69156;55.932;-3.238;2023-12-20T01:54:52;100312.57;;;7.69;100.00
79690;BME280;69156;55.932;-3.238;2023-12-20T01:57:18;100314.86;;;7.67;100.00
79690;BME280;69156;55.932;-3.238;2023-12-20T01:59:44;100316.80;;;7.85;100.00
79690;BME280;69156;55.932;-3.238;2023-12-20T02:02:08;100322.24;;;7.78;100.00
79690;BME280;69156;55.932;-3.238;2023-12-20T02:04:35;100328.83;;;7.71;100.00
79690;BME280;69156;55.932;-3.238;2023-12-20T02:07:02;100328.27;;;7.80;100.00
79690;BME280;69156;55.932;-3.238;2023-12-20T02:09:27;100335.49;;;7.83;100.00
79690;BME280;69156;55.932;-3.238;2023-12-20T02:11:52;100341.43;;;7.77;100.00
79690;BME280;69156;55.932;-3.238;2023-12-20T02:14:19;100341.51;;;7.85;100.00
79690;BME280;69156;55.932;-3.238;2023-12-20T02:16:45;100372.47;;;7.88;100.00
79690;BME280;69156;55.932;-3.238;2023-12-20T02:19:14;100367.60;;;7.91;100.00
79690;BME280;69156;55.932;-3.238;2023-12-20T02:21:36;100361.93;;;8.02;100.00
79690;BME280;69156;55.932;-3.238;2023-12-20T02:24:01;100370.41;;;7.92;100.00
79690;BME280;69156;55.932;-3.238;2023-12-20T02:26:29;100387.48;;;7.98;100.00
79690;BME280;69156;55.932;-3.238;2023-12-20T02:28:51;100389.97;;;7.86;100.00
79690;BME280;69156;55.932;-3.238;2023-12-20T02:31:20;100388.76;;;7.87;100.00
79690;BME280;69156;55.932;-3.238;2023-12-20T02:33:43;100391.12;;;7.88;100.00
79690;BME280;69156;55.932;-3.238;2023-12-20T02:36:08;100391.45;;;7.92;100.00
79690;BME280;69156;55.932;-3.238;2023-12-20T02:38:33;100387.01;;;7.83;100.00
79690;BME280;69156;55.932;-3.238;2023-12-20T02:40:59;100395.04;;;7.91;100.00
79690;BME280;69156;55.932;-3.238;2023-12-20T02:43:25;100394.14;;;7.93;100.00
79690;BME280;69156;55.932;-3.238;2023-12-20T02:45:50;100392.05;;;7.86;100.00
79690;BME280;69156;55.932;-3.238;2023-12-20T02:48:16;100388.26;;;7.80;100.00
79690;BME280;69156;55.932;-3.238;2023-12-20T02:50:41;100392.45;;;7.93;100.00
79690;BME280;69156;55.932;-3.238;2023-12-20T02:53:07;100394.42;;;7.83;100.00
79690;BME280;69156;55.932;-3.238;2023-12-20T02:55:32;100393.68;;;7.91;100.00
79690;BME280;69156;55.932;-3.238;2023-12-20T02:57:57;100396.46;;;7.75;100.00
79690;BME280;69156;55.932;-3.238;2023-12-20T03:00:22;100392.37;;;7.97;100.00
79690;BME280;69156;55.932;-3.238;2023-12-20T03:02:47;100396.37;;;7.86;100.00
79690;BME280;69156;55.932;-3.238;2023-12-20T03:05:13;100397.46;;;7.90;100.00
79690;BME280;69156;55.932;-3.238;2023-12-20T03:07:38;100400.64;;;7.79;100.00
79690;BME280;69156;55.932;-3.238;2023-12-20T03:10:04;100398.93;;;7.88;100.00
79690;BME280;69156;55.932;-3.238;2023-12-20T03:12:29;100401.05;;;7.84;100.00
79690;BME280;69156;55.932;-3.238;2023-12-20T03:14:55;100406.70;;;7.77;100.00
79690;BME280;69156;55.932;-3.238;2023-12-20T03:17:20;100415.35;;;7.77;100.00
79690;BME280;69156;55.932;-3.238;2023-12-20T03:19:49;100413.26;;;7.70;100.00
79690;BME280;69156;55.932;-3.238;2023-12-20T03:22:12;100425.97;;;7.74;100.00
79690;BME280;69156;55.932;-3.238;2023-12-20T03:24:39;100423.27;;;7.77;100.00
79690;BME280;69156;55.932;-3.238;2023-12-20T03:27:03;100425.93;;;7.78;100.00
79690;BME280;69156;55.932;-3.238;2023-12-20T03:29:28;100427.93;;;7.71;100.00
79690;BME280;69156;55.932;-3.238;2023-12-20T03:31:53;100427.51;;;7.76;100.00
79690;BME280;69156;55.932;-3.238;2023-12-20T03:34:19;100426.48;;;7.76;100.00
79690;BME280;69156;55.932;-3.238;2023-12-20T03:36:44;100421.01;;;7.81;100.00
79690;BME280;69156;55.932;-3.238;2023-12-20T03:39:10;100422.73;;;7.80;100.00
79690;BME280;69156;55.932;-3.238;2023-12-20T03:41:40;100420.86;;;7.75;100.00
79690;BME280;69156;55.932;-3.238;2023-12-20T03:44:03;100420.99;;;7.72;100.00
79690;BME280;69156;55.932;-3.238;2023-12-20T03:46:28;100413.32;;;7.72;100.00
79690;BME280;69156;55.932;-3.238;2023-12-20T03:48:54;100411.50;;;7.72;100.00
79690;BME280;69156;55.932;-3.238;2023-12-20T03:51:19;100417.14;;;7.75;100.00
79690;BME280;69156;55.932;-3.238;2023-12-20T03:53:44;100414.44;;;7.71;100.00
79690;BME280;69156;55.932;-3.238;2023-12-20T03:56:09;100416.99;;;7.71;100.00
79690;BME280;69156;55.932;-3.238;2023-12-20T03:58:34;100413.19;;;7.65;100.00
79690;BME280;69156;55.932;-3.238;2023-12-20T04:01:00;100409.89;;;7.73;100.00
79690;BME280;69156;55.932;-3.238;2023-12-20T04:03:25;100405.81;;;7.70;100.00
79690;BME280;69156;55.932;-3.238;2023-12-20T04:05:51;100416.37;;;7.69;100.00
79690;BME280;69156;55.932;-3.238;2023-12-20T04:08:17;100411.07;;;7.70;100.00
79690;BME280;69156;55.932;-3.238;2023-12-20T04:10:42;100414.29;;;7.66;100.00
79690;BME280;69156;55.932;-3.238;2023-12-20T04:13:07;100406.95;;;7.62;100.00
79690;BME280;69156;55.932;-3.238;2023-12-20T04:15:33;100411.33;;;7.67;100.00
79690;BME280;69156;55.932;-3.238;2023-12-20T04:18:01;100410.55;;;7.67;100.00
79690;BME280;69156;55.932;-3.238;2023-12-20T04:20:25;100409.12;;;7.75;100.00
79690;BME280;69156;55.932;-3.238;2023-12-20T04:22:50;100405.42;;;7.69;100.00
79690;BME280;69156;55.932;-3.238;2023-12-20T04:25:15;100396.62;;;7.69;100.00
79690;BME280;69156;55.932;-3.238;2023-12-20T04:27:40;100397.89;;;7.71;100.00
79690;BME280;69156;55.932;-3.238;2023-12-20T04:30:08;100396.18;;;7.67;100.00
79690;BME280;69156;55.932;-3.238;2023-12-20T04:32:32;100399.50;;;7.72;100.00
79690;BME280;69156;55.932;-3.238;2023-12-20T04:34:57;100392.48;;;7.62;100.00
79690;BME280;69156;55.932;-3.238;2023-12-20T04:37:23;100383.53;;;7.67;100.00
79690;BME280;69156;55.932;-3.238;2023-12-20T04:39:48;100380.04;;;7.68;100.00
79690;BME280;69156;55.932;-3.238;2023-12-20T04:42:13;100372.83;;;7.74;100.00
79690;BME280;69156;55.932;-3.238;2023-12-20T04:44:39;100364.69;;;7.71;100.00
79690;BME280;69156;55.932;-3.238;2023-12-20T04:47:05;100364.77;;;7.53;100.00
79690;BME280;69156;55.932;-3.238;2023-12-20T04:49:31;100360.63;;;7.54;100.00
79690;BME280;69156;55.932;-3.238;2023-12-20T04:51:57;100346.15;;;7.55;100.00
79690;BME280;69156;55.932;-3.238;2023-12-20T04:54:22;100357.24;;;7.51;100.00
79690;BME280;69156;55.932;-3.238;2023-12-20T04:56:48;100359.74;;;7.44;100.00
79690;BME280;69156;55.932;-3.238;2023-12-20T04:59:14;100358.40;;;7.58;100.00
79690;BME280;69156;55.932;-3.238;2023-12-20T05:01:41;100358.12;;;7.62;100.00
79690;BME280;69156;55.932;-3.238;2023-12-20T05:04:06;100357.31;;;7.60;100.00
79690;BME280;69156;55.932;-3.238;2023-12-20T05:06:32;100353.69;;;7.42;100.00
79690;BME280;69156;55.932;-3.238;2023-12-20T05:08:57;100361.89;;;7.55;100.00
79690;BME280;69156;55.932;-3.238;2023-12-20T05:11:23;100373.25;;;7.37;100.00
79690;BME280;69156;55.932;-3.238;2023-12-20T05:13:49;100377.53;;;7.37;100.00
79690;BME280;69156;55.932;-3.238;2023-12-20T05:16:15;100373.45;;;7.49;100.00
79690;BME280;69156;55.932;-3.238;2023-12-20T05:18:41;100365.72;;;7.44;100.00
79690;BME280;69156;55.932;-3.238;2023-12-20T05:21:08;100373.56;;;7.48;100.00
79690;BME280;69156;55.932;-3.238;2023-12-20T05:23:33;100370.67;;;7.37;100.00
79690;BME280;69156;55.932;-3.238;2023-12-20T05:26:00;100371.31;;;7.38;100.00
79690;BME280;69156;55.932;-3.238;2023-12-20T05:28:25;100378.55;;;7.36;100.00
79690;BME280;69156;55.932;-3.238;2023-12-20T05:30:52;100386.23;;;7.42;100.00
79690;BME280;69156;55.932;-3.238;2023-12-20T05:33:18;100377.95;;;7.44;100.00
79690;BME280;69156;55.932;-3.238;2023-12-20T05:35:43;100389.09;;;7.32;100.00
79690;BME280;69156;55.932;-3.238;2023-12-20T05:38:09;100385.50;;;7.31;100.00
79690;BME280;69156;55.932;-3.238;2023-12-20T05:40:32;100388.02;;;7.34;100.00
79690;BME280;69156;55.932;-3.238;2023-12-20T05:42:58;100378.41;;;7.36;100.00
79690;BME280;69156;55.932;-3.238;2023-12-20T05:45:22;100377.41;;;7.30;100.00
79690;BME280;69156;55.932;-3.238;2023-12-20T05:47:49;100386.35;;;7.27;100.00
79690;BME280;69156;55.932;-3.238;2023-12-20T05:50:14;100373.20;;;7.32;100.00
79690;BME280;69156;55.932;-3.238;2023-12-20T05:52:41;100381.63;;;7.45;100.00
79690;BME280;69156;55.932;-3.238;2023-12-20T05:55:09;100384.02;;;7.44;100.00
79690;BME280;69156;55.932;-3.238;2023-12-20T05:57:34;100390.33;;;7.29;100.00
79690;BME280;69156;55.932;-3.238;2023-12-20T05:59:58;100389.80;;;7.50;100.00
79690;BME280;69156;55.932;-3.238;2023-12-20T06:02:24;100374.73;;;7.35;100.00
79690;BME280;69156;55.932;-3.238;2023-12-20T06:04:49;100385.12;;;7.33;100.00
79690;BME280;69156;55.932;-3.238;2023-12-20T06:07:16;100371.53;;;7.37;100.00
79690;BME280;69156;55.932;-3.238;2023-12-20T06:09:41;100386.70;;;7.31;100.00
79690;BME280;69156;55.932;-3.238;2023-12-20T06:12:08;100387.31;;;7.44;100.00
79690;BME280;69156;55.932;-3.238;2023-12-20T06:14:34;100391.65;;;7.59;100.00
79690;BME280;69156;55.932;-3.238;2023-12-20T06:17:05;100392.74;;;7.59;100.00
79690;BME280;69156;55.932;-3.238;2023-12-20T06:19:30;100394.71;;;7.54;100.00
79690;BME280;69156;55.932;-3.238;2023-12-20T06:21:57;100388.52;;;7.56;100.00
79690;BME280;69156;55.932;-3.238;2023-12-20T06:24:26;100376.52;;;7.48;100.00
79690;BME280;69156;55.932;-3.238;2023-12-20T06:26:50;100375.23;;;7.51;100.00
79690;BME280;69156;55.932;-3.238;2023-12-20T06:29:18;100370.77;;;7.51;100.00
79690;BME280;69156;55.932;-3.238;2023-12-20T06:31:42;100377.62;;;7.69;100.00
79690;BME280;69156;55.932;-3.238;2023-12-20T06:34:07;100370.93;;;7.54;100.00
79690;BME280;69156;55.932;-3.238;2023-12-20T06:36:35;100367.29;;;7.70;100.00
79690;BME280;69156;55.932;-3.238;2023-12-20T06:39:01;100374.64;;;7.57;100.00
79690;BME280;69156;55.932;-3.238;2023-12-20T06:41:29;100381.23;;;7.78;100.00
79690;BME280;69156;55.932;-3.238;2023-12-20T06:43:53;100383.82;;;7.57;100.00
79690;BME280;69156;55.932;-3.238;2023-12-20T06:46:22;100381.90;;;7.59;100.00
79690;BME280;69156;55.932;-3.238;2023-12-20T06:48:46;100377.33;;;7.56;100.00
79690;BME280;69156;55.932;-3.238;2023-12-20T06:51:13;100383.40;;;7.60;100.00
79690;BME280;69156;55.932;-3.238;2023-12-20T06:53:37;100376.22;;;7.56;100.00
79690;BME280;69156;55.932;-3.238;2023-12-20T06:56:02;100368.73;;;7.66;100.00
79690;BME280;69156;55.932;-3.238;2023-12-20T06:58:28;100362.93;;;7.71;100.00
79690;BME280;69156;55.932;-3.238;2023-12-20T07:00:55;100363.89;;;7.82;100.00
79690;BME280;69156;55.932;-3.238;2023-12-20T07:03:22;100363.63;;;7.74;100.00
79690;BME280;69156;55.932;-3.238;2023-12-20T07:05:45;100355.27;;;7.85;100.00
79690;BME280;69156;55.932;-3.238;2023-12-20T07:08:11;100342.84;;;7.84;100.00
79690;BME280;69156;55.932;-3.238;2023-12-20T07:10:53;100340.85;;;7.85;100.00
79690;BME280;69156;55.932;-3.238;2023-12-20T07:13:17;100345.59;;;7.81;100.00
79690;BME280;69156;55.932;-3.238;2023-12-20T07:15:43;100347.29;;;7.94;100.00
79690;BME280;69156;55.932;-3.238;2023-12-20T07:18:08;100335.48;;;7.78;100.00
79690;BME280;69156;55.932;-3.238;2023-12-20T07:20:33;100329.08;;;7.87;100.00
79690;BME280;69156;55.932;-3.238;2023-12-20T07:23:01;100325.41;;;7.80;100.00
79690;BME280;69156;55.932;-3.238;2023-12-20T07:25:25;100309.10;;;7.75;100.00
79690;BME280;69156;55.932;-3.238;2023-12-20T07:27:51;100303.90;;;7.75;100.00
79690;BME280;69156;55.932;-3.238;2023-12-20T07:30:17;100299.47;;;7.71;100.00
79690;BME280;69156;55.932;-3.238;2023-12-20T07:32:42;100300.54;;;7.77;100.00
79690;BME280;69156;55.932;-3.238;2023-12-20T07:35:11;100298.61;;;7.72;100.00
79690;BME280;69156;55.932;-3.238;2023-12-20T07:37:34;100298.12;;;7.72;100.00
79690;BME280;69156;55.932;-3.238;2023-12-20T07:40:03;100297.65;;;7.78;100.00
79690;BME280;69156;55.932;-3.238;2023-12-20T07:42:26;100299.93;;;7.88;100.00
79690;BME280;69156;55.932;-3.238;2023-12-20T07:44:55;100299.95;;;7.88;100.00
79690;BME280;69156;55.932;-3.238;2023-12-20T07:47:28;100294.18;;;7.90;100.00
79690;BME280;69156;55.932;-3.238;2023-12-20T07:49:49;100283.16;;;7.99;100.00
79690;BME280;69156;55.932;-3.238;2023-12-20T07:52:09;100267.75;;;7.95;100.00
79690;BME280;69156;55.932;-3.238;2023-12-20T07:54:36;100262.90;;;7.92;100.00
79690;BME280;69156;55.932;-3.238;2023-12-20T07:57:00;100264.99;;;8.00;100.00
79690;BME280;69156;55.932;-3.238;2023-12-20T07:59:32;100255.25;;;8.10;100.00
79690;BME280;69156;55.932;-3.238;2023-12-20T08:01:53;100261.23;;;8.15;100.00
79690;BME280;69156;55.932;-3.238;2023-12-20T08:04:20;100255.20;;;8.04;100.00
79690;BME280;69156;55.932;-3.238;2023-12-20T08:06:44;100252.63;;;8.03;100.00
79690;BME280;69156;55.932;-3.238;2023-12-20T08:09:10;100257.29;;;8.04;100.00
79690;BME280;69156;55.932;-3.238;2023-12-20T08:11:36;100266.09;;;8.01;100.00
79690;BME280;69156;55.932;-3.238;2023-12-20T08:14:00;100262.56;;;8.00;100.00
79690;BME280;69156;55.932;-3.238;2023-12-20T08:16:26;100267.55;;;8.15;100.00
79690;BME280;69156;55.932;-3.238;2023-12-20T08:18:53;100266.16;;;8.25;100.00
79690;BME280;69156;55.932;-3.238;2023-12-20T08:21:19;100264.49;;;8.30;100.00
79690;BME280;69156;55.932;-3.238;2023-12-20T08:23:43;100266.02;;;8.26;100.00
79690;BME280;69156;55.932;-3.238;2023-12-20T08:26:12;100255.18;;;8.36;100.00
79690;BME280;69156;55.932;-3.238;2023-12-20T08:28:43;100255.62;;;8.41;100.00
79690;BME280;69156;55.932;-3.238;2023-12-20T08:31:14;100252.96;;;8.40;100.00
79690;BME280;69156;55.932;-3.238;2023-12-20T08:33:35;100239.46;;;8.52;100.00
79690;BME280;69156;55.932;-3.238;2023-12-20T08:36:02;100236.20;;;8.54;100.00
79690;BME280;69156;55.932;-3.238;2023-12-20T08:38:27;100233.94;;;8.51;100.00
79690;BME280;69156;55.932;-3.238;2023-12-20T08:40:53;100229.46;;;8.49;100.00
79690;BME280;69156;55.932;-3.238;2023-12-20T08:43:19;100224.21;;;8.58;100.00
79690;BME280;69156;55.932;-3.238;2023-12-20T08:45:44;100210.70;;;8.65;100.00
79690;BME280;69156;55.932;-3.238;2023-12-20T08:48:12;100199.97;;;8.70;100.00
79690;BME280;69156;55.932;-3.238;2023-12-20T08:50:37;100199.15;;;8.71;100.00
79690;BME280;69156;55.932;-3.238;2023-12-20T08:53:05;100190.55;;;8.74;100.00
79690;BME280;69156;55.932;-3.238;2023-12-20T08:55:26;100172.13;;;8.84;100.00
79690;BME280;69156;55.932;-3.238;2023-12-20T08:57:52;100160.59;;;8.76;100.00
79690;BME280;69156;55.932;-3.238;2023-12-20T09:00:17;100160.53;;;8.82;100.00
79690;BME280;69156;55.932;-3.238;2023-12-20T09:02:43;100157.60;;;8.79;100.00
79690;BME280;69156;55.932;-3.238;2023-12-20T09:05:09;100158.57;;;8.93;100.00
79690;BME280;69156;55.932;-3.238;2023-12-20T09:07:33;100160.72;;;8.79;100.00
79690;BME280;69156;55.932;-3.238;2023-12-20T09:10:00;100151.21;;;8.85;100.00
79690;BME280;69156;55.932;-3.238;2023-12-20T09:12:24;100151.07;;;8.83;100.00
79690;BME280;69156;55.932;-3.238;2023-12-20T09:14:50;100138.42;;;8.77;100.00
79690;BME280;69156;55.932;-3.238;2023-12-20T09:17:15;100136.97;;;8.82;100.00
79690;BME280;69156;55.932;-3.238;2023-12-20T09:19:41;100125.27;;;8.80;100.00
79690;BME280;69156;55.932;-3.238;2023-12-20T09:22:06;100116.64;;;8.91;100.00
79690;BME280;69156;55.932;-3.238;2023-12-20T09:24:33;100108.39;;;9.01;100.00
79690;BME280;69156;55.932;-3.238;2023-12-20T09:26:58;100105.93;;;9.08;100.00
79690;BME280;69156;55.932;-3.238;2023-12-20T09:29:25;100087.60;;;8.96;100.00
79690;BME280;69156;55.932;-3.238;2023-12-20T09:31:48;100085.40;;;9.12;100.00
79690;BME280;69156;55.932;-3.238;2023-12-20T09:34:15;100094.86;;;9.23;100.00
79690;BME280;69156;55.932;-3.238;2023-12-20T09:36:39;100083.28;;;9.29;100.00
79690;BME280;69156;55.932;-3.238;2023-12-20T09:39:08;100070.80;;;9.32;100.00
79690;BME280;69156;55.932;-3.238;2023-12-20T09:41:37;100049.72;;;9.21;100.00
79690;BME280;69156;55.932;-3.238;2023-12-20T09:44:02;100049.37;;;9.29;100.00
79690;BME280;69156;55.932;-3.238;2023-12-20T09:46:26;100035.28;;;9.34;100.00
79690;BME280;69156;55.932;-3.238;2023-12-20T09:48:48;100032.78;;;9.42;100.00
79690;BME280;69156;55.932;-3.238;2023-12-20T09:51:15;100039.84;;;9.38;100.00
79690;BME280;69156;55.932;-3.238;2023-12-20T09:53:39;100035.91;;;9.52;100.00
79690;BME280;69156;55.932;-3.238;2023-12-20T09:56:06;100020.01;;;9.40;100.00
79690;BME280;69156;55.932;-3.238;2023-12-20T09:58:35;100010.88;;;9.34;100.00
79690;BME280;69156;55.932;-3.238;2023-12-20T10:00:56;100004.24;;;9.63;100.00
79690;BME280;69156;55.932;-3.238;2023-12-20T10:03:26;99996.89;;;9.59;100.00
79690;BME280;69156;55.932;-3.238;2023-12-20T10:05:49;99997.26;;;9.51;100.00
79690;BME280;69156;55.932;-3.238;2023-12-20T10:08:13;99995.88;;;9.64;100.00
79690;BME280;69156;55.932;-3.238;2023-12-20T10:10:38;99968.31;;;9.71;100.00
79690;BME280;69156;55.932;-3.238;2023-12-20T10:13:11;99954.82;;;9.67;100.00
79690;BME280;69156;55.932;-3.238;2023-12-20T10:15:36;99940.03;;;9.67;100.00
79690;BME280;69156;55.932;-3.238;2023-12-20T10:18:01;99926.85;;;9.43;100.00
79690;BME280;69156;55.932;-3.238;2023-12-20T10:20:27;99899.92;;;9.47;100.00
79690;BME280;69156;55.932;-3.238;2023-12-20T10:22:54;99890.85;;;9.67;100.00
79690;BME280;69156;55.932;-3.238;2023-12-20T10:25:19;99876.09;;;9.56;100.00
79690;BME280;69156;55.932;-3.238;2023-12-20T10:27:45;99894.53;;;9.78;100.00
79690;BME280;69156;55.932;-3.238;2023-12-20T10:30:14;99900.07;;;9.67;100.00
79690;BME280;69156;55.932;-3.238;2023-12-20T10:32:35;99907.86;;;9.81;100.00
79690;BME280;69156;55.932;-3.238;2023-12-20T10:35:01;99902.47;;;9.85;100.00
79690;BME280;69156;55.932;-3.238;2023-12-20T10:37:26;99909.36;;;9.86;100.00
79690;BME280;69156;55.932;-3.238;2023-12-20T10:39:53;99892.51;;;9.91;100.00
79690;BME280;69156;55.932;-3.238;2023-12-20T10:42:17;99873.24;;;9.93;100.00
79690;BME280;69156;55.932;-3.238;2023-12-20T10:44:47;99871.93;;;10.17;100.00
79690;BME280;69156;55.932;-3.238;2023-12-20T10:47:10;99878.06;;;10.31;100.00
79690;BME280;69156;55.932;-3.238;2023-12-20T10:49:42;99873.24;;;10.22;100.00
79690;BME280;69156;55.932;-3.238;2023-12-20T10:52:12;99866.01;;;10.07;100.00
79690;BME280;69156;55.932;-3.238;2023-12-20T10:54:35;99866.38;;;10.08;100.00
79690;BME280;69156;55.932;-3.238;2023-12-20T10:57:00;99860.42;;;10.11;100.00
79690;BME280;69156;55.932;-3.238;2023-12-20T10:59:29;99864.80;;;10.12;100.00
79690;BME280;69156;55.932;-3.238;2023-12-20T11:01:55;99859.72;;;10.32;100.00
79690;BME280;69156;55.932;-3.238;2023-12-20T11:04:22;99866.13;;;10.34;100.00
79690;BME280;69156;55.932;-3.238;2023-12-20T11:06:49;99862.00;;;10.41;100.00
79690;BME280;69156;55.932;-3.238;2023-12-20T11:09:18;99860.60;;;10.40;100.00
79690;BME280;69156;55.932;-3.238;2023-12-20T11:11:41;99855.75;;;10.47;100.00
79690;BME280;69156;55.932;-3.238;2023-12-20T11:14:05;99842.41;;;10.28;100.00
79690;BME280;69156;55.932;-3.238;2023-12-20T11:16:27;99841.63;;;10.37;100.00
79690;BME280;69156;55.932;-3.238;2023-12-20T11:18:56;99824.54;;;10.17;100.00
79690;BME280;69156;55.932;-3.238;2023-12-20T11:21:17;99828.88;;;10.36;100.00
79690;BME280;69156;55.932;-3.238;2023-12-20T11:23:43;99817.58;;;10.16;100.00
79690;BME280;69156;55.932;-3.238;2023-12-20T11:26:09;99805.03;;;10.19;100.00
79690;BME280;69156;55.932;-3.238;2023-12-20T11:28:35;99804.83;;;10.22;100.00
79690;BME280;69156;55.932;-3.238;2023-12-20T11:31:01;99781.72;;;10.30;100.00
79690;BME280;69156;55.932;-3.238;2023-12-20T11:33:32;99790.77;;;10.24;100.00
79690;BME280;69156;55.932;-3.238;2023-12-20T11:35:52;99782.53;;;10.26;100.00
79690;BME280;69156;55.932;-3.238;2023-12-20T11:38:20;99760.30;;;10.44;100.00
79690;BME280;69156;55.932;-3.238;2023-12-20T11:40:43;99754.18;;;10.43;100.00
79690;BME280;69156;55.932;-3.238;2023-12-20T11:43:08;99751.37;;;10.53;100.00
79690;BME280;69156;55.932;-3.238;2023-12-20T11:45:34;99731.12;;;10.49;100.00
79690;BME280;69156;55.932;-3.238;2023-12-20T11:48:00;99733.95;;;10.44;100.00
79690;BME280;69156;55.932;-3.238;2023-12-20T11:50:25;99732.30;;;10.38;100.00
79690;BME280;69156;55.932;-3.238;2023-12-20T11:52:52;99732.88;;;10.43;100.00
79690;BME280;69156;55.932;-3.238;2023-12-20T11:55:17;99722.02;;;10.62;100.00
79690;BME280;69156;55.932;-3.238;2023-12-20T11:57:43;99715.94;;;10.58;100.00
79690;BME280;69156;55.932;-3.238;2023-12-20T12:00:08;99703.50;;;10.61;100.00
79690;BME280;69156;55.932;-3.238;2023-12-20T12:02:37;99722.05;;;10.57;100.00
79690;BME280;69156;55.932;-3.238;2023-12-20T12:05:02;99712.71;;;10.65;100.00
79690;BME280;69156;55.932;-3.238;2023-12-20T12:07:29;99717.43;;;10.69;100.00
79690;BME280;69156;55.932;-3.238;2023-12-20T12:09:56;99704.75;;;10.69;100.00
79690;BME280;69156;55.932;-3.238;2023-12-20T12:12:21;99708.05;;;10.70;100.00
79690;BME280;69156;55.932;-3.238;2023-12-20T12:14:50;99709.83;;;10.74;100.00
79690;BME280;69156;55.932;-3.238;2023-12-20T12:17:14;99718.50;;;10.93;100.00
79690;BME280;69156;55.932;-3.238;2023-12-20T12:19:39;99704.16;;;10.91;100.00
79690;BME280;69156;55.932;-3.238;2023-12-20T12:22:05;99711.64;;;11.05;100.00
79690;BME280;69156;55.932;-3.238;2023-12-20T12:24:31;99701.78;;;10.97;100.00
79690;BME280;69156;55.932;-3.238;2023-12-20T12:26:57;99683.46;;;11.01;100.00
79690;BME280;69156;55.932;-3.238;2023-12-20T12:29:21;99700.36;;;11.05;100.00
79690;BME280;69156;55.932;-3.238;2023-12-20T12:31:48;99695.25;;;11.18;100.00